Hamaritha — PF2437 — position and weather

sailwx.info

Track history (hours):
 
Tides and Currents Weather Stations Pressure Air Temp Water Temp Dewpoint Dewpoint Depression Visibility Wind Speed Wind Dir Waves Ship Positions

Hamaritha

Last reported at 2017-Jan-21 21:33 UTC. Time now 2017-Jan-21 21:46 UTC.
Position N 51°13' E 006°42'.

Length 86 m.

Type: Ship. MMSI: 244700691.

Date/timePositionNaut miles runAvg speedWind from/ knotsBaromVisibWave heightAir tempDewpointWater temp
2017-Jan-21 21:33N 51°13' E 006°42'0 0.0
2017-Jan-21 20:33N 51°13' E 006°42'0 0.0
2017-Jan-21 19:33N 51°13' E 006°42'0 0.0
2017-Jan-21 18:33N 51°13' E 006°42'0 0.0
2017-Jan-21 17:33N 51°13' E 006°42'0 0.0
2017-Jan-21 16:33N 51°13' E 006°42'0 0.0
2017-Jan-21 15:33N 51°13' E 006°42'0 0.0
2017-Jan-21 14:33N 51°13' E 006°42'0 0.0
2017-Jan-21 13:33N 51°13' E 006°42'0 0.0
2017-Jan-21 12:33N 51°13' E 006°42'0 0.0
2017-Jan-21 11:33N 51°13' E 006°42'0 0.0
2017-Jan-21 10:33N 51°13' E 006°42'0 0.0
2017-Jan-21 09:34N 51°13' E 006°42'0 0.0
2017-Jan-21 08:33N 51°13' E 006°42'0 0.0
2017-Jan-21 07:33N 51°13' E 006°42'0 0.0
2017-Jan-21 06:33N 51°13' E 006°42'0 0.0
2017-Jan-21 05:33N 51°13' E 006°42'0 0.0
2017-Jan-21 04:33N 51°13' E 006°42'0 0.0
2017-Jan-21 03:32N 51°13' E 006°42'0 0.0
2017-Jan-21 02:33N 51°13' E 006°42'0 0.0
2017-Jan-21 01:33N 51°13' E 006°42'0 0.0
2017-Jan-21 00:31N 51°13' E 006°42'0 0.0
2017-Jan-20 23:33N 51°13' E 006°42'0 0.0
2017-Jan-20 22:33N 51°13' E 006°42'0 0.0
2017-Jan-20 21:33N 51°13' E 006°42'0 0.0
2017-Jan-20 20:33N 51°13' E 006°42'0 0.0
2017-Jan-20 19:33N 51°13' E 006°42'0 0.0
2017-Jan-20 18:33N 51°13' E 006°42'0 0.0
2017-Jan-20 17:33N 51°13' E 006°42'0 0.0
2017-Jan-20 16:32N 51°13' E 006°42'0 0.3
2017-Jan-20 15:33N 51°13' E 006°42'2 2.4
2017-Jan-20 14:33N 51°11' E 006°44'14 5.8
2017-Jan-20 12:09N 51°00' E 006°58'5 6.8
2017-Jan-20 11:29N 50°56' E 006°58'5 5.2
2017-Jan-20 10:33N 50°51' E 006°59'8 7.5
2017-Jan-20 09:33N 50°45' E 007°06'  
2017-Jan-13 20:22N 50°43' E 007°09'3 4.2
2017-Jan-13 19:33N 50°46' E 007°05'5 4.3
2017-Jan-13 18:31N 50°49' E 007°01'3 2.8
2017-Jan-13 17:33N 50°52' E 007°01'3 2.5
2017-Jan-13 16:32N 50°54' E 006°59'40 2.1
2017-Jan-12 21:19N 51°32' E 006°41'3 3.6
2017-Jan-12 20:31N 51°35' E 006°39'3 3.2
2017-Jan-12 19:33N 51°37' E 006°35'2 2.5
2017-Jan-12 18:33N 51°39' E 006°36'0 0.0
2017-Jan-12 17:33N 51°39' E 006°36'0 0.0
2017-Jan-12 16:33N 51°39' E 006°36'0 0.0
2017-Jan-12 15:33N 51°39' E 006°36'0 0.0
2017-Jan-12 14:33N 51°39' E 006°36'0 0.0
2017-Jan-12 13:33N 51°39' E 006°36'0 0.1
2017-Jan-12 12:33N 51°39' E 006°36'0 0.0
2017-Jan-12 11:33N 51°39' E 006°36'0 0.0
2017-Jan-12 10:34N 51°39' E 006°36'0 0.0
2017-Jan-12 09:33N 51°39' E 006°36'0 0.0
2017-Jan-12 08:33N 51°39' E 006°36'0 0.0
2017-Jan-12 07:33N 51°39' E 006°36'0 0.0
2017-Jan-12 06:33N 51°39' E 006°36'0 0.0
2017-Jan-12 05:33N 51°39' E 006°36'0 0.0
2017-Jan-12 04:33N 51°39' E 006°36'0 0.0
2017-Jan-12 03:33N 51°39' E 006°36'0 0.0
2017-Jan-12 02:33N 51°39' E 006°36'0 0.0
2017-Jan-12 01:33N 51°39' E 006°36'0 0.0
2017-Jan-12 00:31N 51°39' E 006°36'0 0.0
2017-Jan-11 23:33N 51°39' E 006°36'0 0.0
2017-Jan-11 22:33N 51°39' E 006°36'  
Track history (hours):
 
Tides and Currents Weather Stations Pressure Air Temp Water Temp Dewpoint Dewpoint Depression Visibility Wind Speed Wind Dir Waves Ship Positions

Hamaritha

Last reported at 2017-Jan-21 21:33 UTC. Time now 2017-Jan-21 21:46 UTC.
Position N 51°13' E 006°42'.

Length 86 m.

Type: Ship. MMSI: 244700691.

Date/timePositionNaut miles runAvg speedWind from/ knotsBaromVisibWave heightAir tempDewpointWater temp
2017-Jan-21 21:33N 51°13' E 006°42'0 0.0
2017-Jan-21 20:33N 51°13' E 006°42'0 0.0
2017-Jan-21 19:33N 51°13' E 006°42'0 0.0
2017-Jan-21 18:33N 51°13' E 006°42'0 0.0
2017-Jan-21 17:33N 51°13' E 006°42'0 0.0
2017-Jan-21 16:33N 51°13' E 006°42'0 0.0
2017-Jan-21 15:33N 51°13' E 006°42'0 0.0
2017-Jan-21 14:33N 51°13' E 006°42'0 0.0
2017-Jan-21 13:33N 51°13' E 006°42'0 0.0
2017-Jan-21 12:33N 51°13' E 006°42'0 0.0
2017-Jan-21 11:33N 51°13' E 006°42'0 0.0
2017-Jan-21 10:33N 51°13' E 006°42'0 0.0
2017-Jan-21 09:34N 51°13' E 006°42'0 0.0
2017-Jan-21 08:33N 51°13' E 006°42'0 0.0
2017-Jan-21 07:33N 51°13' E 006°42'0 0.0
2017-Jan-21 06:33N 51°13' E 006°42'0 0.0
2017-Jan-21 05:33N 51°13' E 006°42'0 0.0
2017-Jan-21 04:33N 51°13' E 006°42'0 0.0
2017-Jan-21 03:32N 51°13' E 006°42'0 0.0
2017-Jan-21 02:33N 51°13' E 006°42'0 0.0
2017-Jan-21 01:33N 51°13' E 006°42'0 0.0
2017-Jan-21 00:31N 51°13' E 006°42'0 0.0
2017-Jan-20 23:33N 51°13' E 006°42'0 0.0
2017-Jan-20 22:33N 51°13' E 006°42'0 0.0
2017-Jan-20 21:33N 51°13' E 006°42'0 0.0
2017-Jan-20 20:33N 51°13' E 006°42'0 0.0
2017-Jan-20 19:33N 51°13' E 006°42'0 0.0
2017-Jan-20 18:33N 51°13' E 006°42'0 0.0
2017-Jan-20 17:33N 51°13' E 006°42'0 0.0
2017-Jan-20 16:32N 51°13' E 006°42'0 0.3
2017-Jan-20 15:33N 51°13' E 006°42'2 2.4
2017-Jan-20 14:33N 51°11' E 006°44'14 5.8
2017-Jan-20 12:09N 51°00' E 006°58'5 6.8
2017-Jan-20 11:29N 50°56' E 006°58'5 5.2
2017-Jan-20 10:33N 50°51' E 006°59'8 7.5
2017-Jan-20 09:33N 50°45' E 007°06'  
2017-Jan-13 20:22N 50°43' E 007°09'3 4.2
2017-Jan-13 19:33N 50°46' E 007°05'5 4.3
2017-Jan-13 18:31N 50°49' E 007°01'3 2.8
2017-Jan-13 17:33N 50°52' E 007°01'3 2.5
2017-Jan-13 16:32N 50°54' E 006°59'40 2.1
2017-Jan-12 21:19N 51°32' E 006°41'3 3.6
2017-Jan-12 20:31N 51°35' E 006°39'3 3.2
2017-Jan-12 19:33N 51°37' E 006°35'2 2.5
2017-Jan-12 18:33N 51°39' E 006°36'0 0.0
2017-Jan-12 17:33N 51°39' E 006°36'0 0.0
2017-Jan-12 16:33N 51°39' E 006°36'0 0.0
2017-Jan-12 15:33N 51°39' E 006°36'0 0.0
2017-Jan-12 14:33N 51°39' E 006°36'0 0.0
2017-Jan-12 13:33N 51°39' E 006°36'0 0.1
2017-Jan-12 12:33N 51°39' E 006°36'0 0.0
2017-Jan-12 11:33N 51°39' E 006°36'0 0.0
2017-Jan-12 10:34N 51°39' E 006°36'0 0.0
2017-Jan-12 09:33N 51°39' E 006°36'0 0.0
2017-Jan-12 08:33N 51°39' E 006°36'0 0.0
2017-Jan-12 07:33N 51°39' E 006°36'0 0.0
2017-Jan-12 06:33N 51°39' E 006°36'0 0.0
2017-Jan-12 05:33N 51°39' E 006°36'0 0.0
2017-Jan-12 04:33N 51°39' E 006°36'0 0.0
2017-Jan-12 03:33N 51°39' E 006°36'0 0.0
2017-Jan-12 02:33N 51°39' E 006°36'0 0.0
2017-Jan-12 01:33N 51°39' E 006°36'0 0.0
2017-Jan-12 00:31N 51°39' E 006°36'0 0.0
2017-Jan-11 23:33N 51°39' E 006°36'0 0.0
2017-Jan-11 22:33N 51°39' E 006°36'  

Dump ship's entire track history